Aquinnah, Massachusetts
Current Conditions -  °F | °C
As of 12:53 AM on Sunday 26 Oct 2014 (Local Time) from KMVY Reporting Station
Overcast Overcast  
Wind Chill: 16°   Ceiling: 9500
Heat Index: 16°   Visibility: 10mi
Dew Point: 12°   Wind: 12mph
Humidity: 75%   Direction: 230°SW
Pressure: 29.51"   Gusts: 23mph
Location:  41.3536°N, 70.7417°W
Report Text: KMVY 260453Z AUTO 23010G20KT 10SM FEW070 OVC095 16/12 A2951 RMK AO2 SLP994 T01610117 401720072
Loading
Personal Weather Stations






























Interactive Weather Map
Tropical Storm Tracking
New forecast layout! Learn more

10-Day Weather Forecast

Advertisements
Track Severe Weather on mobile